Portage Glacier, Alaska
Current Conditions -  °F | °C
As of 1:50 PM on Monday 20 Oct 2014 (Local Time) from PATO Reporting Station
Light Rain Light Rain  
Wind Chill: 29°   Ceiling: 2900
Heat Index: 34°   Visibility: 7mi
Dew Point: 34°   Wind: 6mph
Humidity: 100%   Direction: NA
Pressure: 29.06"   Gusts: NA
Location:  60.78°N, 148.85°W
Report Text: PATO 202150Z AUTO VRB05KT 7SM -RA FEW024 BKN029 OVC036 01/01 A2906 RMK AO2 RAB42 P0000 TSNO
Loading
Personal Weather Stations






























Interactive Weather Map
Tropical Storm Tracking
New forecast layout! Learn more

10-Day Weather Forecast

Advertisements
Track Severe Weather on mobile